sensor_id;sensor_type;location;lat;lon;timestamp;temperature;humidity
23335;DHT22;11839;48.598;8.870;2023-05-29T00:00:12;16.90;95.80
23335;DHT22;11839;48.598;8.870;2023-05-29T00:02:41;16.50;96.40
23335;DHT22;11839;48.598;8.870;2023-05-29T00:05:09;16.70;96.20
23335;DHT22;11839;48.598;8.870;2023-05-29T00:07:37;16.80;96.60
23335;DHT22;11839;48.598;8.870;2023-05-29T00:10:05;16.60;96.30
23335;DHT22;11839;48.598;8.870;2023-05-29T00:12:33;16.60;96.10
23335;DHT22;11839;48.598;8.870;2023-05-29T00:15:00;16.50;96.00
23335;DHT22;11839;48.598;8.870;2023-05-29T00:17:29;16.30;96.00
23335;DHT22;11839;48.598;8.870;2023-05-29T00:19:57;16.50;96.30
23335;DHT22;11839;48.598;8.870;2023-05-29T00:22:24;16.40;96.40
23335;DHT22;11839;48.598;8.870;2023-05-29T00:24:51;16.70;96.00
23335;DHT22;11839;48.598;8.870;2023-05-29T00:27:17;16.80;95.80
23335;DHT22;11839;48.598;8.870;2023-05-29T00:29:46;16.70;95.90
23335;DHT22;11839;48.598;8.870;2023-05-29T00:32:12;16.80;96.00
23335;DHT22;11839;48.598;8.870;2023-05-29T00:34:39;16.60;95.90
23335;DHT22;11839;48.598;8.870;2023-05-29T00:37:06;16.70;96.00
23335;DHT22;11839;48.598;8.870;2023-05-29T00:39:33;16.70;96.00
23335;DHT22;11839;48.598;8.870;2023-05-29T00:42:00;16.90;95.70
23335;DHT22;11839;48.598;8.870;2023-05-29T00:44:27;17.00;95.20
23335;DHT22;11839;48.598;8.870;2023-05-29T00:46:55;17.10;94.80
23335;DHT22;11839;48.598;8.870;2023-05-29T00:49:23;17.00;94.70
23335;DHT22;11839;48.598;8.870;2023-05-29T00:51:51;16.80;94.80
23335;DHT22;11839;48.598;8.870;2023-05-29T00:54:21;16.80;94.80
23335;DHT22;11839;48.598;8.870;2023-05-29T00:56:50;16.80;94.60
23335;DHT22;11839;48.598;8.870;2023-05-29T00:59:17;16.60;94.70
23335;DHT22;11839;48.598;8.870;2023-05-29T01:01:46;16.30;95.10
23335;DHT22;11839;48.598;8.870;2023-05-29T01:04:15;16.30;95.00
23335;DHT22;11839;48.598;8.870;2023-05-29T01:06:43;16.30;95.40
23335;DHT22;11839;48.598;8.870;2023-05-29T01:09:11;16.70;95.30
23335;DHT22;11839;48.598;8.870;2023-05-29T01:11:45;16.60;95.00
23335;DHT22;11839;48.598;8.870;2023-05-29T01:14:23;16.60;95.00
23335;DHT22;11839;48.598;8.870;2023-05-29T01:16:55;16.40;95.20
23335;DHT22;11839;48.598;8.870;2023-05-29T01:19:44;16.40;95.30
23335;DHT22;11839;48.598;8.870;2023-05-29T01:22:19;16.40;95.50
23335;DHT22;11839;48.598;8.870;2023-05-29T01:24:56;16.20;95.80
23335;DHT22;11839;48.598;8.870;2023-05-29T01:27:26;16.00;96.10
23335;DHT22;11839;48.598;8.870;2023-05-29T01:29:56;15.80;96.70
23335;DHT22;11839;48.598;8.870;2023-05-29T01:32:25;15.60;97.10
23335;DHT22;11839;48.598;8.870;2023-05-29T01:34:52;15.90;97.00
23335;DHT22;11839;48.598;8.870;2023-05-29T01:37:19;15.90;96.70
23335;DHT22;11839;48.598;8.870;2023-05-29T01:39:45;15.70;97.10
23335;DHT22;11839;48.598;8.870;2023-05-29T01:42:12;15.70;96.90
23335;DHT22;11839;48.598;8.870;2023-05-29T01:44:41;15.80;96.70
23335;DHT22;11839;48.598;8.870;2023-05-29T01:47:09;15.80;96.70
23335;DHT22;11839;48.598;8.870;2023-05-29T01:49:36;15.80;96.70
23335;DHT22;11839;48.598;8.870;2023-05-29T01:52:04;15.60;96.60
23335;DHT22;11839;48.598;8.870;2023-05-29T01:54:31;15.70;96.80
23335;DHT22;11839;48.598;8.870;2023-05-29T01:56:59;15.60;96.80
23335;DHT22;11839;48.598;8.870;2023-05-29T01:59:28;15.60;96.90
23335;DHT22;11839;48.598;8.870;2023-05-29T02:01:56;15.50;97.10
23335;DHT22;11839;48.598;8.870;2023-05-29T02:04:23;15.40;97.30
23335;DHT22;11839;48.598;8.870;2023-05-29T02:06:50;15.20;97.20
23335;DHT22;11839;48.598;8.870;2023-05-29T02:09:17;15.20;97.20
23335;DHT22;11839;48.598;8.870;2023-05-29T02:11:44;15.30;97.30
23335;DHT22;11839;48.598;8.870;2023-05-29T02:14:11;15.10;97.60
23335;DHT22;11839;48.598;8.870;2023-05-29T02:16:38;14.70;98.10
23335;DHT22;11839;48.598;8.870;2023-05-29T02:19:07;14.60;98.60
23335;DHT22;11839;48.598;8.870;2023-05-29T02:21:34;14.70;98.60
23335;DHT22;11839;48.598;8.870;2023-05-29T02:24:01;14.60;98.50
23335;DHT22;11839;48.598;8.870;2023-05-29T02:26:28;14.80;98.70
23335;DHT22;11839;48.598;8.870;2023-05-29T02:28:55;14.80;98.70
23335;DHT22;11839;48.598;8.870;2023-05-29T02:31:21;14.80;98.50
23335;DHT22;11839;48.598;8.870;2023-05-29T02:33:48;15.00;98.20
23335;DHT22;11839;48.598;8.870;2023-05-29T02:36:16;15.00;98.00
23335;DHT22;11839;48.598;8.870;2023-05-29T02:38:43;15.10;98.00
23335;DHT22;11839;48.598;8.870;2023-05-29T02:41:10;15.30;97.90
23335;DHT22;11839;48.598;8.870;2023-05-29T02:43:37;14.90;98.20
23335;DHT22;11839;48.598;8.870;2023-05-29T02:46:04;14.70;98.60
23335;DHT22;11839;48.598;8.870;2023-05-29T02:48:30;14.70;98.80
23335;DHT22;11839;48.598;8.870;2023-05-29T02:50:57;14.80;98.80
23335;DHT22;11839;48.598;8.870;2023-05-29T02:53:25;15.00;98.40
23335;DHT22;11839;48.598;8.870;2023-05-29T02:55:52;15.00;98.20
23335;DHT22;11839;48.598;8.870;2023-05-29T02:58:19;14.60;98.70
23335;DHT22;11839;48.598;8.870;2023-05-29T03:00:46;14.40;98.90
23335;DHT22;11839;48.598;8.870;2023-05-29T03:03:13;14.40;99.30
23335;DHT22;11839;48.598;8.870;2023-05-29T03:05:40;14.30;99.60
23335;DHT22;11839;48.598;8.870;2023-05-29T03:08:07;14.00;99.90
23335;DHT22;11839;48.598;8.870;2023-05-29T03:10:35;14.10;99.80
23335;DHT22;11839;48.598;8.870;2023-05-29T03:13:01;13.70;99.90
23335;DHT22;11839;48.598;8.870;2023-05-29T03:15:29;13.70;99.90
23335;DHT22;11839;48.598;8.870;2023-05-29T03:17:55;13.60;99.90
23335;DHT22;11839;48.598;8.870;2023-05-29T03:20:22;13.40;99.90
23335;DHT22;11839;48.598;8.870;2023-05-29T03:22:49;13.60;99.90
23335;DHT22;11839;48.598;8.870;2023-05-29T03:25:16;14.40;99.90
23335;DHT22;11839;48.598;8.870;2023-05-29T03:27:44;14.30;99.90
23335;DHT22;11839;48.598;8.870;2023-05-29T03:30:11;13.70;99.90
23335;DHT22;11839;48.598;8.870;2023-05-29T03:32:38;13.50;99.90
23335;DHT22;11839;48.598;8.870;2023-05-29T03:35:06;13.40;99.90
23335;DHT22;11839;48.598;8.870;2023-05-29T03:37:33;13.20;99.90
23335;DHT22;11839;48.598;8.870;2023-05-29T03:40:00;13.00;99.90
23335;DHT22;11839;48.598;8.870;2023-05-29T03:42:26;12.70;99.90
23335;DHT22;11839;48.598;8.870;2023-05-29T03:44:54;12.90;99.90
23335;DHT22;11839;48.598;8.870;2023-05-29T03:47:21;13.00;99.90
23335;DHT22;11839;48.598;8.870;2023-05-29T03:49:48;12.80;99.90
23335;DHT22;11839;48.598;8.870;2023-05-29T03:52:15;12.90;99.90
23335;DHT22;11839;48.598;8.870;2023-05-29T03:54:42;13.10;99.90
23335;DHT22;11839;48.598;8.870;2023-05-29T03:57:10;13.10;99.90
23335;DHT22;11839;48.598;8.870;2023-05-29T03:59:36;12.80;99.90
23335;DHT22;11839;48.598;8.870;2023-05-29T04:02:05;12.60;99.90
23335;DHT22;11839;48.598;8.870;2023-05-29T04:04:32;12.30;99.90
23335;DHT22;11839;48.598;8.870;2023-05-29T04:06:58;12.20;99.90
23335;DHT22;11839;48.598;8.870;2023-05-29T04:09:26;12.20;99.90
23335;DHT22;11839;48.598;8.870;2023-05-29T04:11:52;12.00;99.90
23335;DHT22;11839;48.598;8.870;2023-05-29T04:14:20;12.00;99.90
23335;DHT22;11839;48.598;8.870;2023-05-29T04:16:47;12.20;99.90
23335;DHT22;11839;48.598;8.870;2023-05-29T04:19:15;12.00;99.90
23335;DHT22;11839;48.598;8.870;2023-05-29T04:21:41;12.10;99.90
23335;DHT22;11839;48.598;8.870;2023-05-29T04:24:08;12.40;99.90
23335;DHT22;11839;48.598;8.870;2023-05-29T04:26:36;12.60;99.90
23335;DHT22;11839;48.598;8.870;2023-05-29T04:29:06;13.00;99.90
23335;DHT22;11839;48.598;8.870;2023-05-29T04:31:33;13.00;99.90
23335;DHT22;11839;48.598;8.870;2023-05-29T04:34:02;12.80;99.90
23335;DHT22;11839;48.598;8.870;2023-05-29T04:36:31;12.80;99.90
23335;DHT22;11839;48.598;8.870;2023-05-29T04:38:59;13.00;99.90
23335;DHT22;11839;48.598;8.870;2023-05-29T04:41:27;13.20;99.90
23335;DHT22;11839;48.598;8.870;2023-05-29T04:43:56;13.10;99.90
23335;DHT22;11839;48.598;8.870;2023-05-29T04:46:23;13.40;99.90
23335;DHT22;11839;48.598;8.870;2023-05-29T04:48:50;13.50;99.90
23335;DHT22;11839;48.598;8.870;2023-05-29T04:51:18;13.50;99.90
23335;DHT22;11839;48.598;8.870;2023-05-29T04:53:47;13.70;99.90
23335;DHT22;11839;48.598;8.870;2023-05-29T04:56:13;13.60;99.90
23335;DHT22;11839;48.598;8.870;2023-05-29T04:58:40;13.50;99.90
23335;DHT22;11839;48.598;8.870;2023-05-29T05:01:08;13.70;99.90
23335;DHT22;11839;48.598;8.870;2023-05-29T05:03:34;13.80;99.90
23335;DHT22;11839;48.598;8.870;2023-05-29T05:06:01;14.00;99.90
23335;DHT22;11839;48.598;8.870;2023-05-29T05:08:29;14.00;99.90
23335;DHT22;11839;48.598;8.870;2023-05-29T05:10:57;13.90;99.90
23335;DHT22;11839;48.598;8.870;2023-05-29T05:13:24;13.60;99.90
23335;DHT22;11839;48.598;8.870;2023-05-29T05:15:51;13.50;99.90
23335;DHT22;11839;48.598;8.870;2023-05-29T05:18:18;13.70;99.90
23335;DHT22;11839;48.598;8.870;2023-05-29T05:20:45;14.00;99.90
23335;DHT22;11839;48.598;8.870;2023-05-29T05:23:12;14.00;99.90
23335;DHT22;11839;48.598;8.870;2023-05-29T05:25:38;14.00;99.90
23335;DHT22;11839;48.598;8.870;2023-05-29T05:28:08;14.30;99.90
23335;DHT22;11839;48.598;8.870;2023-05-29T05:30:35;14.40;99.90
23335;DHT22;11839;48.598;8.870;2023-05-29T05:33:02;14.90;99.90
23335;DHT22;11839;48.598;8.870;2023-05-29T05:35:29;15.10;99.90
23335;DHT22;11839;48.598;8.870;2023-05-29T05:37:56;15.40;99.90
23335;DHT22;11839;48.598;8.870;2023-05-29T05:40:24;15.80;99.90
23335;DHT22;11839;48.598;8.870;2023-05-29T05:42:51;16.30;99.90
23335;DHT22;11839;48.598;8.870;2023-05-29T05:45:19;16.60;99.90
23335;DHT22;11839;48.598;8.870;2023-05-29T05:47:46;16.40;99.90
23335;DHT22;11839;48.598;8.870;2023-05-29T05:50:13;16.40;99.90
23335;DHT22;11839;48.598;8.870;2023-05-29T05:52:40;16.70;99.90
23335;DHT22;11839;48.598;8.870;2023-05-29T05:55:07;17.20;99.10
23335;DHT22;11839;48.598;8.870;2023-05-29T05:57:34;17.30;98.20
23335;DHT22;11839;48.598;8.870;2023-05-29T06:00:01;17.80;98.00
23335;DHT22;11839;48.598;8.870;2023-05-29T06:02:31;17.60;98.00
23335;DHT22;11839;48.598;8.870;2023-05-29T06:04:58;17.40;98.30
23335;DHT22;11839;48.598;8.870;2023-05-29T06:07:24;17.80;97.90
23335;DHT22;11839;48.598;8.870;2023-05-29T06:09:51;18.10;97.20
23335;DHT22;11839;48.598;8.870;2023-05-29T06:12:18;18.10;97.50
23335;DHT22;11839;48.598;8.870;2023-05-29T06:14:45;18.30;97.10
23335;DHT22;11839;48.598;8.870;2023-05-29T06:17:11;18.40;97.20
23335;DHT22;11839;48.598;8.870;2023-05-29T06:19:39;18.90;96.30
23335;DHT22;11839;48.598;8.870;2023-05-29T06:22:06;18.70;96.00
23335;DHT22;11839;48.598;8.870;2023-05-29T06:24:33;18.70;96.20
23335;DHT22;11839;48.598;8.870;2023-05-29T06:27:00;19.10;95.50
23335;DHT22;11839;48.598;8.870;2023-05-29T06:29:26;18.50;95.40
23335;DHT22;11839;48.598;8.870;2023-05-29T06:31:53;18.10;96.00
23335;DHT22;11839;48.598;8.870;2023-05-29T06:34:20;17.90;96.00
23335;DHT22;11839;48.598;8.870;2023-05-29T06:36:48;17.90;96.60
23335;DHT22;11839;48.598;8.870;2023-05-29T06:39:15;18.40;96.40
23335;DHT22;11839;48.598;8.870;2023-05-29T06:41:43;19.00;95.70
23335;DHT22;11839;48.598;8.870;2023-05-29T06:44:10;19.40;94.80
23335;DHT22;11839;48.598;8.870;2023-05-29T06:46:37;19.30;93.40
23335;DHT22;11839;48.598;8.870;2023-05-29T06:49:03;19.20;93.40
23335;DHT22;11839;48.598;8.870;2023-05-29T06:51:30;18.70;94.10
23335;DHT22;11839;48.598;8.870;2023-05-29T06:53:59;18.70;94.80
23335;DHT22;11839;48.598;8.870;2023-05-29T06:56:26;19.00;94.30
23335;DHT22;11839;48.598;8.870;2023-05-29T06:58:53;19.20;93.90
23335;DHT22;11839;48.598;8.870;2023-05-29T07:01:20;19.20;94.20
23335;DHT22;11839;48.598;8.870;2023-05-29T07:03:51;19.10;94.10
23335;DHT22;11839;48.598;8.870;2023-05-29T07:06:18;19.40;94.00
23335;DHT22;11839;48.598;8.870;2023-05-29T07:08:45;19.00;94.50
23335;DHT22;11839;48.598;8.870;2023-05-29T07:11:13;19.30;94.90
23335;DHT22;11839;48.598;8.870;2023-05-29T07:13:40;19.30;94.50
23335;DHT22;11839;48.598;8.870;2023-05-29T07:16:07;19.30;95.00
23335;DHT22;11839;48.598;8.870;2023-05-29T07:18:34;19.50;94.70
23335;DHT22;11839;48.598;8.870;2023-05-29T07:21:01;19.60;94.60
23335;DHT22;11839;48.598;8.870;2023-05-29T07:23:28;19.70;94.30
23335;DHT22;11839;48.598;8.870;2023-05-29T07:25:54;19.90;94.40
23335;DHT22;11839;48.598;8.870;2023-05-29T07:28:22;20.00;93.90
23335;DHT22;11839;48.598;8.870;2023-05-29T07:30:49;20.10;93.80
23335;DHT22;11839;48.598;8.870;2023-05-29T07:33:16;20.10;93.80
23335;DHT22;11839;48.598;8.870;2023-05-29T07:35:43;20.20;93.80
23335;DHT22;11839;48.598;8.870;2023-05-29T07:38:09;20.00;94.00
23335;DHT22;11839;48.598;8.870;2023-05-29T07:40:36;20.00;94.50
23335;DHT22;11839;48.598;8.870;2023-05-29T07:43:03;20.00;94.50
23335;DHT22;11839;48.598;8.870;2023-05-29T07:45:31;20.30;93.90
23335;DHT22;11839;48.598;8.870;2023-05-29T07:47:58;20.30;94.00
23335;DHT22;11839;48.598;8.870;2023-05-29T07:50:24;20.50;94.60
23335;DHT22;11839;48.598;8.870;2023-05-29T07:52:52;20.60;94.00
23335;DHT22;11839;48.598;8.870;2023-05-29T07:55:21;20.70;93.80
23335;DHT22;11839;48.598;8.870;2023-05-29T07:57:48;21.20;93.40
23335;DHT22;11839;48.598;8.870;2023-05-29T08:00:15;21.10;93.60
23335;DHT22;11839;48.598;8.870;2023-05-29T08:02:43;21.30;93.40
23335;DHT22;11839;48.598;8.870;2023-05-29T08:05:10;21.20;93.40
23335;DHT22;11839;48.598;8.870;2023-05-29T08:07:38;21.00;93.30
23335;DHT22;11839;48.598;8.870;2023-05-29T08:10:06;20.90;93.80
23335;DHT22;11839;48.598;8.870;2023-05-29T08:12:33;20.90;93.80
23335;DHT22;11839;48.598;8.870;2023-05-29T08:15:01;21.30;93.50
23335;DHT22;11839;48.598;8.870;2023-05-29T08:17:27;21.10;93.40
23335;DHT22;11839;48.598;8.870;2023-05-29T08:19:55;21.40;93.40
23335;DHT22;11839;48.598;8.870;2023-05-29T08:22:28;21.80;92.80
23335;DHT22;11839;48.598;8.870;2023-05-29T08:24:55;22.00;92.70
23335;DHT22;11839;48.598;8.870;2023-05-29T08:27:22;21.60;92.80
23335;DHT22;11839;48.598;8.870;2023-05-29T08:29:48;21.60;92.80
23335;DHT22;11839;48.598;8.870;2023-05-29T08:32:15;22.10;92.70
23335;DHT22;11839;48.598;8.870;2023-05-29T08:34:42;22.40;91.60
23335;DHT22;11839;48.598;8.870;2023-05-29T08:37:12;21.90;91.90
23335;DHT22;11839;48.598;8.870;2023-05-29T08:39:39;22.20;91.80
23335;DHT22;11839;48.598;8.870;2023-05-29T08:42:09;22.50;91.30
23335;DHT22;11839;48.598;8.870;2023-05-29T08:44:40;22.40;90.90
23335;DHT22;11839;48.598;8.870;2023-05-29T08:47:08;22.50;90.80
23335;DHT22;11839;48.598;8.870;2023-05-29T08:49:40;22.90;90.80
23335;DHT22;11839;48.598;8.870;2023-05-29T08:52:11;22.90;90.10
23335;DHT22;11839;48.598;8.870;2023-05-29T08:54:40;22.80;90.30
23335;DHT22;11839;48.598;8.870;2023-05-29T08:57:07;23.10;90.60
23335;DHT22;11839;48.598;8.870;2023-05-29T08:59:35;22.80;90.60
23335;DHT22;11839;48.598;8.870;2023-05-29T09:02:03;22.80;90.50
23335;DHT22;11839;48.598;8.870;2023-05-29T09:04:31;23.00;90.30
23335;DHT22;11839;48.598;8.870;2023-05-29T09:06:58;23.70;88.90
23335;DHT22;11839;48.598;8.870;2023-05-29T09:09:25;24.10;86.10
23335;DHT22;11839;48.598;8.870;2023-05-29T09:11:55;24.30;83.70
23335;DHT22;11839;48.598;8.870;2023-05-29T09:14:36;24.20;84.20
23335;DHT22;11839;48.598;8.870;2023-05-29T09:17:04;23.80;85.70
23335;DHT22;11839;48.598;8.870;2023-05-29T09:19:31;24.70;85.50
23335;DHT22;11839;48.598;8.870;2023-05-29T09:22:03;25.60;83.50
23335;DHT22;11839;48.598;8.870;2023-05-29T09:24:31;25.80;79.50
23335;DHT22;11839;48.598;8.870;2023-05-29T09:27:01;25.10;81.50
23335;DHT22;11839;48.598;8.870;2023-05-29T09:29:30;25.10;80.40
23335;DHT22;11839;48.598;8.870;2023-05-29T09:31:58;24.80;80.00
23335;DHT22;11839;48.598;8.870;2023-05-29T09:34:25;25.00;80.10
23335;DHT22;11839;48.598;8.870;2023-05-29T09:36:53;25.10;80.60
23335;DHT22;11839;48.598;8.870;2023-05-29T09:39:21;25.50;79.50
23335;DHT22;11839;48.598;8.870;2023-05-29T09:41:48;25.90;78.40
23335;DHT22;11839;48.598;8.870;2023-05-29T09:44:16;25.70;77.20
23335;DHT22;11839;48.598;8.870;2023-05-29T09:46:43;26.30;77.60
23335;DHT22;11839;48.598;8.870;2023-05-29T09:49:12;25.70;77.20
23335;DHT22;11839;48.598;8.870;2023-05-29T09:51:39;25.40;77.00
23335;DHT22;11839;48.598;8.870;2023-05-29T09:54:15;24.50;77.90
23335;DHT22;11839;48.598;8.870;2023-05-29T09:56:43;24.20;78.80
23335;DHT22;11839;48.598;8.870;2023-05-29T09:59:11;24.10;77.60
23335;DHT22;11839;48.598;8.870;2023-05-29T10:01:41;24.00;77.70
23335;DHT22;11839;48.598;8.870;2023-05-29T10:04:09;24.50;78.30
23335;DHT22;11839;48.598;8.870;2023-05-29T10:06:38;24.90;76.60
23335;DHT22;11839;48.598;8.870;2023-05-29T10:09:06;24.60;76.30
23335;DHT22;11839;48.598;8.870;2023-05-29T10:11:38;25.20;76.80
23335;DHT22;11839;48.598;8.870;2023-05-29T10:14:10;25.70;76.80
23335;DHT22;11839;48.598;8.870;2023-05-29T10:16:42;24.80;75.50
23335;DHT22;11839;48.598;8.870;2023-05-29T10:19:12;24.90;76.50
23335;DHT22;11839;48.598;8.870;2023-05-29T10:21:40;25.00;76.50
23335;DHT22;11839;48.598;8.870;2023-05-29T10:24:08;24.80;76.40
23335;DHT22;11839;48.598;8.870;2023-05-29T10:26:39;24.80;76.50
23335;DHT22;11839;48.598;8.870;2023-05-29T10:29:11;25.70;75.40
23335;DHT22;11839;48.598;8.870;2023-05-29T10:31:48;26.30;75.50
23335;DHT22;11839;48.598;8.870;2023-05-29T10:34:23;26.50;74.90
23335;DHT22;11839;48.598;8.870;2023-05-29T10:37:00;26.60;76.00
23335;DHT22;11839;48.598;8.870;2023-05-29T10:39:29;26.60;75.20
23335;DHT22;11839;48.598;8.870;2023-05-29T10:41:56;25.60;76.30
23335;DHT22;11839;48.598;8.870;2023-05-29T10:44:39;25.20;76.80
23335;DHT22;11839;48.598;8.870;2023-05-29T10:47:24;25.10;78.00
23335;DHT22;11839;48.598;8.870;2023-05-29T10:49:51;24.70;78.40
23335;DHT22;11839;48.598;8.870;2023-05-29T10:52:19;24.80;78.90
23335;DHT22;11839;48.598;8.870;2023-05-29T10:54:52;24.30;79.80
23335;DHT22;11839;48.598;8.870;2023-05-29T10:57:21;23.90;81.10
23335;DHT22;11839;48.598;8.870;2023-05-29T11:02:41;24.60;80.70
23335;DHT22;11839;48.598;8.870;2023-05-29T11:05:19;24.50;79.70
23335;DHT22;11839;48.598;8.870;2023-05-29T11:07:59;24.40;80.80
23335;DHT22;11839;48.598;8.870;2023-05-29T11:10:55;24.40;79.80
23335;DHT22;11839;48.598;8.870;2023-05-29T11:13:26;24.70;80.20
23335;DHT22;11839;48.598;8.870;2023-05-29T11:16:35;25.20;79.20
23335;DHT22;11839;48.598;8.870;2023-05-29T11:19:05;25.50;78.30
23335;DHT22;11839;48.598;8.870;2023-05-29T11:21:53;25.30;76.90
23335;DHT22;11839;48.598;8.870;2023-05-29T11:24:26;24.90;79.20
23335;DHT22;11839;48.598;8.870;2023-05-29T11:26:56;25.60;78.70
23335;DHT22;11839;48.598;8.870;2023-05-29T11:29:24;25.40;77.00
23335;DHT22;11839;48.598;8.870;2023-05-29T11:32:00;25.40;77.00
23335;DHT22;11839;48.598;8.870;2023-05-29T11:34:30;25.30;76.90
23335;DHT22;11839;48.598;8.870;2023-05-29T11:36:58;25.50;76.00
23335;DHT22;11839;48.598;8.870;2023-05-29T11:39:26;25.80;75.40
23335;DHT22;11839;48.598;8.870;2023-05-29T11:41:53;25.60;73.90
23335;DHT22;11839;48.598;8.870;2023-05-29T11:44:23;25.20;74.20
23335;DHT22;11839;48.598;8.870;2023-05-29T11:46:59;25.00;74.90
23335;DHT22;11839;48.598;8.870;2023-05-29T11:49:29;25.10;76.30
23335;DHT22;11839;48.598;8.870;2023-05-29T11:52:06;25.80;75.90
23335;DHT22;11839;48.598;8.870;2023-05-29T11:54:33;26.10;76.00
23335;DHT22;11839;48.598;8.870;2023-05-29T11:57:00;26.00;75.30
23335;DHT22;11839;48.598;8.870;2023-05-29T11:59:28;26.40;73.60
23335;DHT22;11839;48.598;8.870;2023-05-29T12:01:55;26.50;73.20
23335;DHT22;11839;48.598;8.870;2023-05-29T12:04:22;26.70;72.60
23335;DHT22;11839;48.598;8.870;2023-05-29T12:06:50;26.20;72.90
23335;DHT22;11839;48.598;8.870;2023-05-29T12:09:25;26.20;73.40
23335;DHT22;11839;48.598;8.870;2023-05-29T12:11:53;26.00;75.10
23335;DHT22;11839;48.598;8.870;2023-05-29T12:14:20;26.20;75.00
23335;DHT22;11839;48.598;8.870;2023-05-29T12:16:47;25.80;73.30
23335;DHT22;11839;48.598;8.870;2023-05-29T12:19:14;25.70;72.50
23335;DHT22;11839;48.598;8.870;2023-05-29T12:21:41;25.70;73.20
23335;DHT22;11839;48.598;8.870;2023-05-29T12:24:10;25.90;72.70
23335;DHT22;11839;48.598;8.870;2023-05-29T12:26:37;25.90;72.60
23335;DHT22;11839;48.598;8.870;2023-05-29T12:29:04;25.70;72.20
23335;DHT22;11839;48.598;8.870;2023-05-29T12:31:32;25.60;72.40
23335;DHT22;11839;48.598;8.870;2023-05-29T12:34:07;25.90;72.30
23335;DHT22;11839;48.598;8.870;2023-05-29T12:36:34;25.90;70.20
23335;DHT22;11839;48.598;8.870;2023-05-29T12:39:06;26.00;69.50
23335;DHT22;11839;48.598;8.870;2023-05-29T12:41:36;26.30;69.50
23335;DHT22;11839;48.598;8.870;2023-05-29T12:44:04;26.20;68.50
23335;DHT22;11839;48.598;8.870;2023-05-29T12:46:36;26.40;69.90
23335;DHT22;11839;48.598;8.870;2023-05-29T12:49:14;26.20;68.60
23335;DHT22;11839;48.598;8.870;2023-05-29T12:51:45;26.10;68.30
23335;DHT22;11839;48.598;8.870;2023-05-29T12:54:13;26.00;69.10
23335;DHT22;11839;48.598;8.870;2023-05-29T12:56:41;25.90;68.40
23335;DHT22;11839;48.598;8.870;2023-05-29T12:59:08;26.40;69.30
23335;DHT22;11839;48.598;8.870;2023-05-29T13:01:37;26.90;68.30
23335;DHT22;11839;48.598;8.870;2023-05-29T13:04:04;26.80;67.00
23335;DHT22;11839;48.598;8.870;2023-05-29T13:06:32;26.70;66.70
23335;DHT22;11839;48.598;8.870;2023-05-29T13:09:00;26.00;67.00
23335;DHT22;11839;48.598;8.870;2023-05-29T13:11:27;26.40;67.00
23335;DHT22;11839;48.598;8.870;2023-05-29T13:13:55;27.40;64.20
23335;DHT22;11839;48.598;8.870;2023-05-29T13:16:22;27.60;61.90
23335;DHT22;11839;48.598;8.870;2023-05-29T13:18:49;27.50;61.50
23335;DHT22;11839;48.598;8.870;2023-05-29T13:21:16;28.00;62.00
23335;DHT22;11839;48.598;8.870;2023-05-29T13:23:43;28.60;61.20
23335;DHT22;11839;48.598;8.870;2023-05-29T13:26:10;28.30;60.10
23335;DHT22;11839;48.598;8.870;2023-05-29T13:28:37;28.00;60.20
23335;DHT22;11839;48.598;8.870;2023-05-29T13:31:06;28.40;60.40
23335;DHT22;11839;48.598;8.870;2023-05-29T13:33:33;28.30;59.40
23335;DHT22;11839;48.598;8.870;2023-05-29T13:35:59;29.70;58.60
23335;DHT22;11839;48.598;8.870;2023-05-29T13:38:26;29.70;57.20
23335;DHT22;11839;48.598;8.870;2023-05-29T13:40:53;30.40;57.50
23335;DHT22;11839;48.598;8.870;2023-05-29T13:43:20;29.50;56.90
23335;DHT22;11839;48.598;8.870;2023-05-29T13:45:47;29.60;57.70
23335;DHT22;11839;48.598;8.870;2023-05-29T13:48:15;29.10;58.00
23335;DHT22;11839;48.598;8.870;2023-05-29T13:50:42;29.40;56.70
23335;DHT22;11839;48.598;8.870;2023-05-29T13:53:09;30.20;55.80
23335;DHT22;11839;48.598;8.870;2023-05-29T13:55:36;29.30;56.20
23335;DHT22;11839;48.598;8.870;2023-05-29T13:58:03;28.50;56.90
23335;DHT22;11839;48.598;8.870;2023-05-29T14:00:30;29.10;56.40
23335;DHT22;11839;48.598;8.870;2023-05-29T14:02:57;29.20;56.00
23335;DHT22;11839;48.598;8.870;2023-05-29T14:05:25;29.50;56.10
23335;DHT22;11839;48.598;8.870;2023-05-29T14:07:52;29.20;55.20
23335;DHT22;11839;48.598;8.870;2023-05-29T14:10:19;28.50;56.80
23335;DHT22;11839;48.598;8.870;2023-05-29T14:12:46;28.40;55.40
23335;DHT22;11839;48.598;8.870;2023-05-29T14:15:13;29.10;55.50
23335;DHT22;11839;48.598;8.870;2023-05-29T14:17:40;29.90;54.80
23335;DHT22;11839;48.598;8.870;2023-05-29T14:20:07;28.90;56.00
23335;DHT22;11839;48.598;8.870;2023-05-29T14:22:36;29.40;55.30
23335;DHT22;11839;48.598;8.870;2023-05-29T14:25:03;29.90;54.10
23335;DHT22;11839;48.598;8.870;2023-05-29T14:27:30;30.20;53.40
23335;DHT22;11839;48.598;8.870;2023-05-29T14:29:57;30.80;52.80
23335;DHT22;11839;48.598;8.870;2023-05-29T14:32:25;31.10;52.40
23335;DHT22;11839;48.598;8.870;2023-05-29T14:34:52;31.60;51.60
23335;DHT22;11839;48.598;8.870;2023-05-29T14:37:19;31.40;50.10
23335;DHT22;11839;48.598;8.870;2023-05-29T14:39:47;31.30;50.80
23335;DHT22;11839;48.598;8.870;2023-05-29T14:42:14;30.80;50.80
23335;DHT22;11839;48.598;8.870;2023-05-29T14:44:41;30.00;51.60
23335;DHT22;11839;48.598;8.870;2023-05-29T14:47:08;29.50;53.00
23335;DHT22;11839;48.598;8.870;2023-05-29T14:49:36;29.20;54.80
23335;DHT22;11839;48.598;8.870;2023-05-29T14:52:04;30.20;52.90
23335;DHT22;11839;48.598;8.870;2023-05-29T14:54:30;31.00;52.80
23335;DHT22;11839;48.598;8.870;2023-05-29T14:56:59;31.00;51.50
23335;DHT22;11839;48.598;8.870;2023-05-29T14:59:26;31.80;50.20
23335;DHT22;11839;48.598;8.870;2023-05-29T15:01:52;30.70;52.60
23335;DHT22;11839;48.598;8.870;2023-05-29T15:04:19;30.10;51.90
23335;DHT22;11839;48.598;8.870;2023-05-29T15:06:46;28.70;52.40
23335;DHT22;11839;48.598;8.870;2023-05-29T15:09:13;28.60;52.70
23335;DHT22;11839;48.598;8.870;2023-05-29T15:11:40;28.20;54.10
23335;DHT22;11839;48.598;8.870;2023-05-29T15:14:08;27.70;54.10
23335;DHT22;11839;48.598;8.870;2023-05-29T15:16:35;27.80;54.10
23335;DHT22;11839;48.598;8.870;2023-05-29T15:19:02;27.70;55.40
23335;DHT22;11839;48.598;8.870;2023-05-29T15:21:28;27.80;55.40
23335;DHT22;11839;48.598;8.870;2023-05-29T15:23:55;27.40;54.60
23335;DHT22;11839;48.598;8.870;2023-05-29T15:26:22;26.50;54.80
23335;DHT22;11839;48.598;8.870;2023-05-29T15:28:49;26.40;55.70
23335;DHT22;11839;48.598;8.870;2023-05-29T15:31:17;26.50;56.80
23335;DHT22;11839;48.598;8.870;2023-05-29T15:33:44;26.70;56.50
23335;DHT22;11839;48.598;8.870;2023-05-29T15:36:10;26.40;55.50
23335;DHT22;11839;48.598;8.870;2023-05-29T15:38:37;26.20;55.60